createdAt,value
2023-04-18T00:00:15.498Z,32.33
2023-04-18T00:02:46.197Z,40.27
2023-04-18T00:05:18.777Z,34.30
2023-04-18T00:07:47.652Z,34.63
2023-04-18T00:10:16.445Z,25.50
2023-04-18T00:12:44.604Z,24.13
2023-04-18T00:15:13.228Z,19.97
2023-04-18T00:17:41.761Z,18.17
2023-04-18T00:20:13.067Z,22.50
2023-04-18T00:22:45.727Z,13.13
2023-04-18T00:25:14.264Z,19.20
2023-04-18T00:27:42.582Z,13.70
2023-04-18T00:30:11.435Z,11.57
2023-04-18T00:32:41.535Z,31.37
2023-04-18T00:35:10.248Z,14.20
2023-04-18T00:37:39.129Z,15.50
2023-04-18T00:40:07.719Z,14.43
2023-04-18T00:42:36.195Z,16.10
2023-04-18T00:45:05.557Z,8.03
2023-04-18T00:47:35.226Z,13.70
2023-04-18T00:50:03.996Z,7.97
2023-04-18T00:52:36.362Z,14.63
2023-04-18T00:55:07.780Z,7.97
2023-04-18T00:57:36.905Z,10.47
2023-04-18T01:00:12.849Z,5.63
2023-04-18T01:02:41.401Z,6.90
2023-04-18T01:05:10.176Z,7.43
2023-04-18T01:07:41.911Z,11.00
2023-04-18T01:10:12.771Z,14.30
2023-04-18T01:12:42.138Z,12.07
2023-04-18T01:15:10.549Z,8.33
2023-04-18T01:17:39.973Z,5.50
2023-04-18T01:20:10.972Z,10.30
2023-04-18T01:22:39.306Z,7.10
2023-04-18T01:25:11.244Z,12.00
2023-04-18T01:27:41.442Z,17.47
2023-04-18T01:30:10.297Z,18.07
2023-04-18T01:32:39.373Z,13.47
2023-04-18T01:35:08.371Z,14.97
2023-04-18T01:37:36.791Z,21.40
2023-04-18T01:40:05.323Z,13.93
2023-04-18T01:42:33.857Z,12.13
2023-04-18T01:45:02.538Z,14.73
2023-04-18T01:47:31.458Z,9.30
2023-04-18T01:49:59.925Z,5.57
2023-04-18T01:52:28.313Z,9.40
2023-04-18T01:54:58.164Z,15.77
2023-04-18T01:57:26.403Z,13.33
2023-04-18T01:59:57.119Z,8.73
2023-04-18T02:02:25.611Z,12.80
2023-04-18T02:04:53.954Z,19.83
2023-04-18T02:07:22.494Z,17.87
2023-04-18T02:09:50.614Z,10.47
2023-04-18T02:12:18.766Z,19.33
2023-04-18T02:14:46.931Z,12.60
2023-04-18T02:17:15.454Z,14.17
2023-04-18T02:19:43.786Z,11.70
2023-04-18T02:22:11.949Z,10.67
2023-04-18T02:24:40.008Z,23.07
2023-04-18T02:27:11.651Z,11.80
2023-04-18T02:29:39.812Z,13.63
2023-04-18T02:32:08.786Z,6.53
2023-04-18T02:34:38.053Z,7.20
2023-04-18T02:37:06.153Z,10.03
2023-04-18T02:39:34.507Z,19.53
2023-04-18T02:42:02.628Z,13.03
2023-04-18T02:44:30.989Z,6.83
2023-04-18T02:46:59.414Z,7.33
2023-04-18T02:49:27.360Z,13.23
2023-04-18T02:51:59.138Z,10.43
2023-04-18T02:54:27.308Z,12.47
2023-04-18T02:56:57.362Z,10.37
2023-04-18T02:59:25.276Z,18.13
2023-04-18T03:01:57.441Z,13.40
2023-04-18T03:04:25.412Z,16.00
2023-04-18T03:06:54.000Z,10.73
2023-04-18T03:09:22.241Z,16.63
2023-04-18T03:11:50.885Z,18.10
2023-04-18T03:14:19.124Z,10.73
2023-04-18T03:16:47.734Z,10.17
2023-04-18T03:19:16.611Z,12.00
2023-04-18T03:21:45.345Z,12.03
2023-04-18T03:24:15.943Z,12.17
2023-04-18T03:26:44.253Z,7.83
2023-04-18T03:29:14.501Z,10.07
2023-04-18T03:31:42.978Z,8.83
2023-04-18T03:34:11.620Z,8.07
2023-04-18T03:36:40.462Z,9.93
2023-04-18T03:39:08.817Z,13.17
2023-04-18T03:41:37.100Z,11.67
2023-04-18T03:44:05.241Z,14.47
2023-04-18T03:46:33.393Z,13.03
2023-04-18T03:49:01.501Z,14.60
2023-04-18T03:51:35.273Z,15.33
2023-04-18T03:54:03.804Z,14.70
2023-04-18T03:56:34.668Z,13.77
2023-04-18T03:59:02.608Z,10.53
2023-04-18T04:01:30.986Z,17.07
2023-04-18T04:03:59.656Z,17.70
2023-04-18T04:06:27.952Z,13.63
2023-04-18T04:08:56.478Z,13.43
2023-04-18T04:11:27.408Z,18.63
2023-04-18T04:13:55.825Z,12.00
2023-04-18T04:16:30.735Z,22.13
2023-04-18T04:18:59.358Z,14.07
2023-04-18T04:21:28.016Z,17.40
2023-04-18T04:24:02.231Z,14.93
2023-04-18T04:26:31.024Z,13.97
2023-04-18T04:28:59.578Z,18.90
2023-04-18T04:31:29.079Z,14.87
2023-04-18T04:33:57.471Z,15.23
2023-04-18T04:36:27.547Z,28.77
2023-04-18T04:38:55.751Z,22.13
2023-04-18T04:41:24.803Z,26.03
2023-04-18T04:43:53.466Z,33.97
2023-04-18T04:46:24.808Z,32.63
2023-04-18T04:48:54.784Z,64.43
2023-04-18T04:51:22.690Z,55.23
2023-04-18T04:53:52.212Z,47.00
2023-04-18T04:56:24.909Z,64.17
2023-04-18T04:58:54.459Z,62.53
2023-04-18T05:01:23.164Z,44.23
2023-04-18T05:03:52.907Z,26.00
2023-04-18T05:06:22.977Z,30.30
2023-04-18T05:08:54.387Z,26.53
2023-04-18T05:11:26.273Z,20.97
2023-04-18T05:13:56.831Z,20.57
2023-04-18T05:16:27.697Z,19.97
2023-04-18T05:19:00.151Z,27.60
2023-04-18T05:21:29.251Z,29.30
2023-04-18T05:23:57.226Z,21.80
2023-04-18T05:26:25.374Z,24.38
2023-04-18T05:28:53.577Z,27.33
2023-04-18T05:31:24.659Z,38.90
2023-04-18T05:33:53.036Z,20.83
2023-04-18T05:36:21.209Z,20.83
2023-04-18T05:38:49.410Z,30.57
2023-04-18T05:41:17.585Z,30.90
2023-04-18T05:43:58.188Z,47.80
2023-04-18T05:46:37.578Z,19.93
2023-04-18T05:49:05.885Z,24.23
2023-04-18T05:51:33.905Z,35.75
2023-04-18T05:54:04.804Z,74.07
2023-04-18T05:56:35.805Z,52.03
2023-04-18T05:59:04.609Z,27.02
2023-04-18T06:01:32.922Z,44.28
2023-04-18T06:04:05.558Z,37.92
2023-04-18T06:06:36.711Z,36.20
2023-04-18T06:09:05.164Z,57.90
2023-04-18T06:11:36.852Z,60.28
2023-04-18T06:14:10.635Z,79.70
2023-04-18T06:16:39.787Z,54.67
2023-04-18T06:19:12.522Z,88.30
2023-04-18T06:21:42.555Z,44.75
2023-04-18T06:24:10.827Z,28.35
2023-04-18T06:26:41.092Z,28.42
2023-04-18T06:29:09.499Z,21.67
2023-04-18T06:31:37.868Z,37.07
2023-04-18T06:34:06.757Z,42.60
2023-04-18T06:36:34.607Z,31.77
2023-04-18T06:39:02.792Z,22.23
2023-04-18T06:41:30.600Z,26.90
2023-04-18T06:46:29.690Z,21.60
2023-04-18T06:48:58.026Z,27.37
2023-04-18T06:51:27.853Z,24.40
2023-04-18T06:53:58.859Z,24.93
2023-04-18T06:56:30.302Z,19.27
2023-04-18T06:58:58.759Z,22.50
2023-04-18T07:01:27.047Z,16.10
2023-04-18T07:03:55.189Z,21.93
2023-04-18T07:06:23.532Z,22.53
2023-04-18T07:08:53.980Z,22.77
2023-04-18T07:11:23.893Z,19.87
2023-04-18T07:13:55.342Z,30.40
2023-04-18T07:16:23.417Z,41.63
2023-04-18T07:18:52.126Z,30.70
2023-04-18T07:21:20.178Z,31.03
2023-04-18T07:23:48.293Z,43.00
2023-04-18T07:26:18.407Z,52.10
2023-04-18T07:28:46.705Z,37.80
2023-04-18T07:31:14.913Z,30.37
2023-04-18T07:33:43.900Z,25.20
2023-04-18T07:36:15.897Z,34.30
2023-04-18T07:38:47.254Z,19.67
2023-04-18T07:41:20.937Z,48.63
2023-04-18T07:43:49.476Z,37.33
2023-04-18T07:46:17.625Z,36.17
2023-04-18T07:48:46.593Z,24.67
2023-04-18T07:51:14.660Z,24.20
2023-04-18T07:53:44.167Z,27.60
2023-04-18T07:56:14.345Z,26.60
2023-04-18T07:58:42.618Z,26.77
2023-04-18T08:01:18.788Z,42.33
2023-04-18T08:03:48.053Z,24.87
2023-04-18T08:06:17.283Z,23.10
2023-04-18T08:08:45.662Z,19.57
2023-04-18T08:11:13.861Z,26.90
2023-04-18T08:13:41.997Z,24.17
2023-04-18T08:16:16.268Z,21.30
2023-04-18T08:18:45.477Z,22.17
2023-04-18T08:21:13.944Z,26.87
2023-04-18T08:23:45.689Z,46.80
2023-04-18T08:26:17.670Z,25.47
2023-04-18T08:28:46.791Z,20.53
2023-04-18T08:31:15.494Z,17.13
2023-04-18T08:33:43.754Z,14.43
2023-04-18T08:36:12.479Z,29.47
2023-04-18T08:38:43.686Z,27.93
2023-04-18T08:41:11.969Z,21.47
2023-04-18T08:43:42.343Z,30.20
2023-04-18T08:46:10.817Z,13.57
2023-04-18T08:48:39.518Z,18.03
2023-04-18T08:51:08.175Z,17.87
2023-04-18T08:53:36.913Z,21.93
2023-04-18T08:56:05.780Z,20.10
2023-04-18T08:58:35.078Z,22.73
2023-04-18T09:01:05.993Z,32.23
2023-04-18T09:03:37.866Z,23.63
2023-04-18T09:06:11.744Z,20.37
2023-04-18T09:08:44.114Z,35.07
2023-04-18T09:11:30.102Z,34.77
2023-04-18T09:14:03.022Z,22.47
2023-04-18T09:16:47.365Z,22.37
2023-04-18T09:19:19.368Z,27.43
2023-04-18T09:21:49.154Z,20.73
2023-04-18T09:24:24.482Z,19.07
2023-04-18T09:26:54.539Z,63.40
2023-04-18T09:29:43.782Z,31.17
2023-04-18T09:32:12.282Z,18.50
2023-04-18T09:34:43.036Z,25.57
2023-04-18T09:37:12.544Z,19.53
2023-04-18T09:39:44.448Z,25.87
2023-04-18T09:42:14.177Z,29.17
2023-04-18T09:45:06.639Z,23.93
2023-04-18T09:47:36.933Z,32.90
2023-04-18T09:50:07.937Z,25.63
2023-04-18T09:52:42.485Z,31.60
2023-04-18T09:55:19.386Z,26.33
2023-04-18T09:57:48.735Z,18.27
2023-04-18T10:00:24.634Z,20.23
2023-04-18T10:03:00.780Z,18.43
2023-04-18T10:05:33.594Z,15.37
2023-04-18T10:08:01.778Z,18.93
2023-04-18T10:10:33.131Z,23.13
2023-04-18T10:13:02.972Z,23.07
2023-04-18T10:15:31.978Z,20.20
2023-04-18T10:18:05.441Z,29.40
2023-04-18T10:20:41.738Z,25.33
2023-04-18T10:23:31.855Z,20.80
2023-04-18T10:26:00.168Z,29.13
2023-04-18T10:28:31.890Z,24.73
2023-04-18T10:31:05.533Z,19.87
2023-04-18T10:33:40.954Z,22.30
2023-04-18T10:36:17.394Z,32.70
2023-04-18T10:38:50.756Z,25.13
2023-04-18T10:41:26.492Z,28.77
2023-04-18T10:44:16.353Z,29.90
2023-04-18T10:46:53.734Z,28.90
2023-04-18T10:49:26.390Z,20.40
2023-04-18T10:52:03.423Z,32.47
2023-04-18T10:55:04.833Z,27.53
2023-04-18T10:57:45.200Z,23.73
2023-04-18T11:00:18.696Z,24.93
2023-04-18T11:02:56.552Z,18.27
2023-04-18T11:05:29.325Z,25.47
2023-04-18T11:07:57.353Z,29.60
2023-04-18T11:10:29.754Z,23.87
2023-04-18T11:13:05.790Z,25.20
2023-04-18T11:15:37.306Z,22.20
2023-04-18T11:18:05.788Z,34.50
2023-04-18T11:20:41.280Z,22.93
2023-04-18T11:23:21.398Z,26.10
2023-04-18T11:25:54.889Z,28.93
2023-04-18T11:28:25.354Z,17.40
2023-04-18T11:30:58.535Z,22.67
2023-04-18T11:33:28.951Z,29.67
2023-04-18T11:36:02.284Z,21.97
2023-04-18T11:38:32.033Z,19.17
2023-04-18T11:41:03.392Z,26.13
2023-04-18T11:43:31.516Z,29.97
2023-04-18T11:46:00.675Z,26.70
2023-04-18T11:48:39.449Z,22.13
2023-04-18T11:51:12.811Z,24.20
2023-04-18T11:53:42.012Z,30.23
2023-04-18T11:56:14.507Z,22.87
2023-04-18T11:58:43.389Z,20.03
2023-04-18T12:01:21.813Z,22.03
2023-04-18T12:04:09.188Z,23.07
2023-04-18T12:06:54.275Z,25.97
2023-04-18T12:09:27.191Z,20.03
2023-04-18T12:11:59.837Z,21.00
2023-04-18T12:14:28.897Z,22.57
2023-04-18T12:16:57.435Z,16.73
2023-04-18T12:19:30.456Z,23.40
2023-04-18T12:22:05.537Z,17.90
2023-04-18T12:24:36.304Z,24.67
2023-04-18T12:27:04.521Z,20.17
2023-04-18T12:29:34.599Z,23.33
2023-04-18T12:32:05.170Z,24.63
2023-04-18T12:34:33.250Z,21.73
2023-04-18T12:37:01.502Z,18.73
2023-04-18T12:39:30.114Z,23.40
2023-04-18T12:41:59.334Z,21.53
2023-04-18T12:44:27.338Z,18.43
2023-04-18T12:46:55.280Z,15.37
2023-04-18T12:49:23.324Z,21.67
2023-04-18T12:51:51.738Z,22.50
2023-04-18T12:54:21.777Z,20.33
2023-04-18T12:56:49.800Z,30.07
2023-04-18T12:59:18.241Z,21.07
2023-04-18T13:01:49.175Z,18.70
2023-04-18T13:04:17.547Z,18.73
2023-04-18T13:06:49.018Z,24.30
2023-04-18T13:09:18.180Z,15.53
2023-04-18T13:11:47.733Z,26.10
2023-04-18T13:14:17.439Z,23.13
2023-04-18T13:16:46.576Z,16.03
2023-04-18T13:19:15.643Z,21.33
2023-04-18T13:21:44.231Z,15.53
2023-04-18T13:24:12.541Z,23.17
2023-04-18T13:26:41.378Z,18.07
2023-04-18T13:29:09.536Z,23.00
2023-04-18T13:31:41.280Z,22.77
2023-04-18T13:34:10.113Z,22.50
2023-04-18T13:36:38.958Z,24.43
2023-04-18T13:39:07.566Z,20.37
2023-04-18T13:41:36.357Z,21.67
2023-04-18T13:44:05.211Z,24.87
2023-04-18T13:46:33.768Z,17.03
2023-04-18T13:49:01.898Z,19.27
2023-04-18T13:51:38.524Z,22.80
2023-04-18T13:54:07.197Z,25.37
2023-04-18T13:56:35.394Z,28.77
2023-04-18T13:59:03.547Z,21.83
2023-04-18T14:01:32.132Z,17.63
2023-04-18T14:04:00.606Z,19.30
2023-04-18T14:06:31.341Z,17.97
2023-04-18T14:09:00.552Z,22.50
2023-04-18T14:11:31.281Z,22.60
2023-04-18T14:13:59.549Z,20.67
2023-04-18T14:16:32.269Z,16.20
2023-04-18T14:19:04.636Z,20.77
2023-04-18T14:21:34.564Z,20.17
2023-04-18T14:24:06.133Z,18.67
2023-04-18T14:26:36.994Z,18.83
2023-04-18T14:29:05.547Z,21.97
2023-04-18T14:31:37.500Z,16.50
2023-04-18T14:34:06.347Z,15.87
2023-04-18T14:36:40.225Z,20.70
2023-04-18T14:39:11.559Z,16.93
2023-04-18T14:41:39.841Z,16.47
2023-04-18T14:44:11.042Z,16.93
2023-04-18T14:46:45.429Z,23.03
2023-04-18T14:49:14.002Z,16.37
2023-04-18T14:51:42.380Z,18.50
2023-04-18T14:54:16.070Z,14.83
2023-04-18T14:56:48.298Z,21.63
2023-04-18T14:59:19.955Z,14.97
2023-04-18T15:01:49.168Z,24.00
2023-04-18T15:04:19.931Z,29.17
2023-04-18T15:06:51.227Z,24.90
2023-04-18T15:09:20.055Z,23.57
2023-04-18T15:11:49.491Z,36.83
2023-04-18T15:14:23.534Z,36.20
2023-04-18T15:16:52.007Z,33.97
2023-04-18T15:19:20.594Z,40.50
2023-04-18T15:21:48.971Z,26.23
2023-04-18T15:24:18.483Z,28.83
2023-04-18T15:26:46.819Z,24.90
2023-04-18T15:29:15.113Z,15.03
2023-04-18T15:31:43.545Z,17.77
2023-04-18T15:34:12.649Z,19.03
2023-04-18T15:36:41.991Z,11.83
2023-04-18T15:39:11.333Z,19.20
2023-04-18T15:41:43.176Z,16.47
2023-04-18T15:44:12.239Z,14.63
2023-04-18T15:46:43.740Z,20.33
2023-04-18T15:49:12.208Z,15.37
2023-04-18T15:51:40.824Z,20.67
2023-04-18T15:54:12.579Z,27.00
2023-04-18T15:56:43.320Z,15.93
2023-04-18T15:59:12.196Z,23.23
2023-04-18T16:01:42.759Z,20.47
2023-04-18T16:04:12.131Z,21.20
2023-04-18T16:06:41.253Z,17.37
2023-04-18T16:09:13.492Z,19.87
2023-04-18T16:11:41.873Z,15.93
2023-04-18T16:14:09.900Z,17.17
2023-04-18T16:16:41.877Z,21.77
2023-04-18T16:19:13.326Z,23.07
2023-04-18T16:21:42.130Z,17.97
2023-04-18T16:24:10.506Z,16.97
2023-04-18T16:26:38.608Z,21.07
2023-04-18T16:29:06.815Z,18.47
2023-04-18T16:31:35.807Z,19.33
2023-04-18T16:34:06.494Z,19.77
2023-04-18T16:36:35.437Z,17.27
2023-04-18T16:39:07.933Z,15.60
2023-04-18T16:41:38.944Z,18.47
2023-04-18T16:44:07.348Z,20.13
2023-04-18T16:46:36.638Z,18.87
2023-04-18T16:49:06.843Z,17.67
2023-04-18T16:51:37.602Z,18.00
2023-04-18T16:54:06.411Z,24.60
2023-04-18T16:56:38.016Z,23.67
2023-04-18T16:59:09.633Z,20.47
2023-04-18T17:01:38.140Z,27.20
2023-04-18T17:04:09.633Z,20.30
2023-04-18T17:06:39.188Z,25.00
2023-04-18T17:09:07.258Z,24.50
2023-04-18T17:11:39.777Z,25.23
2023-04-18T17:14:10.705Z,24.43
2023-04-18T17:16:40.083Z,27.90
2023-04-18T17:19:16.450Z,24.57
2023-04-18T17:21:47.575Z,32.63
2023-04-18T17:24:19.098Z,42.00
2023-04-18T17:26:50.019Z,38.83
2023-04-18T17:29:24.717Z,40.97
2023-04-18T17:31:54.543Z,43.43
2023-04-18T17:34:27.962Z,32.63
2023-04-18T17:36:56.134Z,29.70
2023-04-18T17:39:24.580Z,35.40
2023-04-18T17:41:52.695Z,84.10
2023-04-18T17:44:22.835Z,44.40
2023-04-18T17:46:53.961Z,41.77
2023-04-18T17:49:22.140Z,51.70
2023-04-18T17:51:50.444Z,43.00
2023-04-18T17:54:21.813Z,44.63
2023-04-18T17:56:50.662Z,39.17
2023-04-18T17:59:39.462Z,31.80
2023-04-18T18:02:07.882Z,28.20
2023-04-18T18:04:36.359Z,17.53
2023-04-18T18:07:09.674Z,22.40
2023-04-18T18:09:38.872Z,18.97
2023-04-18T18:12:12.519Z,21.93
2023-04-18T18:14:41.196Z,22.33
2023-04-18T18:17:09.634Z,23.33
2023-04-18T18:19:39.667Z,32.30
2023-04-18T18:22:08.858Z,21.97
2023-04-18T18:24:37.571Z,34.13
2023-04-18T18:27:31.084Z,25.83
2023-04-18T18:29:59.180Z,22.27
2023-04-18T18:32:27.581Z,41.80
2023-04-18T18:34:56.427Z,22.47
2023-04-18T18:37:30.213Z,43.57
2023-04-18T18:39:59.156Z,35.60
2023-04-18T18:42:28.127Z,26.90
2023-04-18T18:44:57.211Z,24.20
2023-04-18T18:47:25.467Z,32.30
2023-04-18T18:49:53.419Z,19.97
2023-04-18T18:52:22.397Z,40.87
2023-04-18T18:54:53.714Z,37.70
2023-04-18T18:57:22.109Z,36.97
2023-04-18T18:59:55.143Z,28.97
2023-04-18T19:02:24.436Z,36.73
2023-04-18T19:04:55.555Z,51.90
2023-04-18T19:07:23.947Z,53.13
2023-04-18T19:09:53.604Z,42.90
2023-04-18T19:12:22.042Z,33.07
2023-04-18T19:14:51.114Z,36.70
2023-04-18T19:17:22.698Z,47.10
2023-04-18T19:19:58.155Z,25.30
2023-04-18T19:22:28.893Z,26.13
2023-04-18T19:25:01.000Z,37.90
2023-04-18T19:27:29.764Z,28.50
2023-04-18T19:29:58.035Z,33.87
2023-04-18T19:32:28.863Z,35.53
2023-04-18T19:35:00.385Z,32.33
2023-04-18T19:37:32.246Z,40.20
2023-04-18T19:40:00.421Z,35.37
2023-04-18T19:42:28.722Z,34.03
2023-04-18T19:44:59.618Z,32.07
2023-04-18T19:47:32.445Z,33.93
2023-04-18T19:50:01.765Z,41.87
2023-04-18T19:52:30.649Z,39.07
2023-04-18T19:55:02.353Z,31.73
2023-04-18T19:57:31.384Z,39.60
2023-04-18T19:59:59.808Z,28.03
2023-04-18T20:02:28.195Z,28.47
2023-04-18T20:05:01.697Z,28.77
2023-04-18T20:07:31.489Z,23.80
2023-04-18T20:09:59.908Z,20.67
2023-04-18T20:12:28.063Z,30.60
2023-04-18T20:14:56.383Z,26.03
2023-04-18T20:17:24.671Z,43.07
2023-04-18T20:19:59.739Z,32.40
2023-04-18T20:22:27.829Z,38.43
2023-04-18T20:24:57.593Z,32.07
2023-04-18T20:27:25.753Z,35.33
2023-04-18T20:29:56.062Z,43.80
2023-04-18T20:32:25.727Z,33.00
2023-04-18T20:34:53.887Z,39.17
2023-04-18T20:37:22.105Z,36.37
2023-04-18T20:39:50.055Z,32.00
2023-04-18T20:42:18.990Z,32.67
2023-04-18T20:44:47.874Z,32.07
2023-04-18T20:47:16.130Z,25.27
2023-04-18T20:49:47.706Z,26.27
2023-04-18T20:52:15.990Z,25.70
2023-04-18T20:54:44.117Z,39.37
2023-04-18T20:57:12.254Z,30.00
2023-04-18T20:59:40.912Z,50.67
2023-04-18T21:02:09.902Z,36.40
2023-04-18T21:04:38.780Z,23.90
2023-04-18T21:07:11.522Z,24.50
2023-04-18T21:09:40.401Z,30.40
2023-04-18T21:12:09.214Z,27.43
2023-04-18T21:14:40.096Z,32.67
2023-04-18T21:17:10.490Z,27.67
2023-04-18T21:19:39.942Z,26.73
2023-04-18T21:22:08.411Z,21.77
2023-04-18T21:24:37.575Z,23.30
2023-04-18T21:27:05.774Z,24.57
2023-04-18T21:29:36.437Z,19.23
2023-04-18T21:32:05.701Z,25.60
2023-04-18T21:34:37.342Z,21.03
2023-04-18T21:37:06.325Z,18.83
2023-04-18T21:39:36.195Z,19.40
2023-04-18T21:42:05.051Z,21.27
2023-04-18T21:44:40.155Z,27.00
2023-04-18T21:47:08.352Z,22.63
2023-04-18T21:49:37.064Z,31.57
2023-04-18T21:52:05.560Z,19.87
2023-04-18T21:54:34.124Z,29.87
2023-04-18T21:57:03.078Z,21.70
2023-04-18T21:59:32.157Z,24.93
2023-04-18T22:02:00.801Z,22.17
2023-04-18T22:04:33.169Z,19.53
2023-04-18T22:07:01.925Z,24.33
2023-04-18T22:09:34.478Z,25.50
2023-04-18T22:12:04.021Z,20.83
2023-04-18T22:14:32.697Z,18.63
2023-04-18T22:17:03.889Z,17.83
2023-04-18T22:19:32.502Z,25.83
2023-04-18T22:22:01.013Z,16.07
2023-04-18T22:24:32.295Z,20.87
2023-04-18T22:27:03.292Z,20.40
2023-04-18T22:29:31.632Z,22.43
2023-04-18T22:31:59.951Z,31.80
2023-04-18T22:34:28.233Z,21.77
2023-04-18T22:36:56.634Z,17.60
2023-04-18T22:39:26.984Z,22.07
2023-04-18T22:41:57.787Z,21.30
2023-04-18T22:44:26.045Z,24.00
2023-04-18T22:47:00.344Z,29.23
2023-04-18T22:49:29.142Z,29.03
2023-04-18T22:51:57.693Z,21.40
2023-04-18T22:54:26.365Z,19.77
2023-04-18T22:56:54.687Z,23.70
2023-04-18T22:59:32.101Z,24.70
2023-04-18T23:02:01.266Z,22.53
2023-04-18T23:04:33.011Z,19.60
2023-04-18T23:07:03.339Z,15.77
2023-04-18T23:09:33.974Z,18.33
2023-04-18T23:12:05.298Z,23.60
2023-04-18T23:14:34.932Z,19.40
2023-04-18T23:17:03.326Z,19.07
2023-04-18T23:19:32.094Z,19.30
2023-04-18T23:22:00.138Z,25.27
2023-04-18T23:24:28.683Z,32.07
2023-04-18T23:27:05.627Z,23.90
2023-04-18T23:29:40.230Z,18.13
2023-04-18T23:32:08.589Z,13.63
2023-04-18T23:34:38.208Z,18.17
2023-04-18T23:37:06.374Z,14.17
2023-04-18T23:39:34.678Z,15.77
2023-04-18T23:42:05.969Z,22.33
2023-04-18T23:44:34.064Z,18.20
2023-04-18T23:47:02.119Z,18.63
2023-04-18T23:49:30.689Z,21.87
2023-04-18T23:51:58.658Z,20.10
2023-04-18T23:54:27.016Z,24.97
2023-04-18T23:56:55.565Z,20.17
2023-04-18T23:59:23.998Z,14.00
